Time;durP1;ratioP1;P1;durP2;ratioP2;P2;SDS_P1;SDS_P2;PMS_P1;PMS_P2;Temp;Humidity;BMP_temperature;BMP_pressure;BME280_temperature;BME280_humidity;BME280_pressure;Samples;Min_cycle;Max_cycle;Signal;HPM_P1;HPM_P2
2022/06/14 00:01:55;;;;;;;4.53;4.13;;;15.00;99.90;;;;;;5017445;28;20627;-81
2022/06/14 00:04:22;;;;;;;5.67;4.20;;;14.90;99.90;;;;;;5020584;28;20717;-81
2022/06/14 00:06:50;;;;;;;7.23;4.30;;;14.90;99.90;;;;;;5012953;28;20611;-81
2022/06/14 00:09:17;;;;;;;4.60;3.63;;;14.80;99.90;;;;;;5020918;28;20619;-81
2022/06/14 00:11:46;;;;;;;5.80;4.23;;;14.70;99.90;;;;;;5014868;28;20631;-81
2022/06/14 00:14:13;;;;;;;5.33;3.90;;;14.70;99.90;;;;;;5012318;28;20634;-81
2022/06/14 00:16:40;;;;;;;4.27;3.83;;;14.60;99.90;;;;;;5012990;28;20623;-81
2022/06/14 00:19:07;;;;;;;3.93;3.53;;;14.50;99.90;;;;;;5013265;28;20782;-80
2022/06/14 00:21:35;;;;;;;4.27;3.87;;;14.40;99.90;;;;;;5025082;28;20756;-80
2022/06/14 00:24:04;;;;;;;8.07;4.27;;;14.30;99.90;;;;;;5021500;28;20623;-80
2022/06/14 00:26:31;;;;;;;9.13;4.83;;;14.30;99.90;;;;;;5022326;28;21081;-80
2022/06/14 00:28:58;;;;;;;5.70;4.70;;;14.30;99.90;;;;;;5021720;28;21339;-80
2022/06/14 00:31:26;;;;;;;4.87;4.47;;;14.40;99.90;;;;;;5014526;28;20663;-80
2022/06/14 00:33:53;;;;;;;4.07;3.77;;;14.50;99.90;;;;;;5007850;28;20616;-80
2022/06/14 00:36:23;;;;;;;5.47;4.10;;;14.50;99.90;;;;;;5012211;28;20639;-80
2022/06/14 00:38:50;;;;;;;4.87;4.37;;;14.50;99.90;;;;;;5012590;28;20636;-80
2022/06/14 00:41:28;;;;;;;5.53;4.00;;;14.50;99.90;;;;;;5022865;28;21231;-79
2022/06/14 00:43:54;;;;;;;6.00;3.80;;;14.40;99.90;;;;;;5007578;28;20632;-79
2022/06/14 00:46:24;;;;;;;4.80;3.90;;;14.50;99.90;;;;;;5017821;28;21445;-79
2022/06/14 00:49:01;;;;;;;5.80;4.40;;;14.50;99.90;;;;;;5008729;28;21182;-80
2022/06/14 00:51:33;;;;;;;5.47;4.37;;;14.50;99.90;;;;;;5013873;28;21430;-81
2022/06/14 00:54:06;;;;;;;5.80;5.30;;;14.50;99.90;;;;;;5024442;28;20615;-81
2022/06/14 00:56:41;;;;;;;5.07;4.60;;;14.40;99.90;;;;;;5022174;28;20633;-81
2022/06/14 00:59:16;;;;;;;7.13;4.43;;;14.40;99.90;;;;;;5020343;28;20662;-79
2022/06/14 01:01:44;;;;;;;5.40;4.47;;;14.50;99.90;;;;;;5018124;28;20626;-80
2022/06/14 01:04:14;;;;;;;6.10;4.47;;;14.50;99.90;;;;;;5011126;28;20630;-79
2022/06/14 01:06:49;;;;;;;6.27;4.23;;;14.40;99.90;;;;;;5017477;28;20673;-79
2022/06/14 01:09:18;;;;;;;4.97;4.43;;;14.30;99.90;;;;;;5019364;28;20625;-79
2022/06/14 01:11:50;;;;;;;5.77;4.80;;;14.40;99.90;;;;;;5019011;28;20626;-79
2022/06/14 01:14:20;;;;;;;4.80;4.30;;;14.40;99.90;;;;;;5017864;28;20626;-80
2022/06/14 01:16:47;;;;;;;4.40;4.00;;;14.30;99.90;;;;;;5024062;28;20622;-79
2022/06/14 01:19:20;;;;;;;6.03;4.30;;;14.30;99.90;;;;;;5018205;28;20676;-79
2022/06/14 01:22:22;;;;;;;4.27;3.83;;;14.20;99.90;;;;;;5020819;28;20635;-79
2022/06/14 01:24:49;;;;;;;5.53;4.83;;;14.20;99.90;;;;;;5016935;28;20614;-80
2022/06/14 01:27:18;;;;;;;5.50;4.93;;;14.30;99.90;;;;;;5019187;28;20631;-80
2022/06/14 01:29:51;;;;;;;5.90;4.27;;;14.30;99.90;;;;;;5023991;28;20651;-80
2022/06/14 01:32:19;;;;;;;7.17;4.20;;;14.30;99.90;;;;;;5010002;28;21434;-78
2022/06/14 01:34:50;;;;;;;6.00;4.60;;;14.20;99.90;;;;;;5020297;28;20619;-79
2022/06/14 01:37:18;;;;;;;5.40;4.77;;;14.10;99.90;;;;;;5008898;28;20646;-79
2022/06/14 01:39:45;;;;;;;4.80;4.40;;;14.00;99.90;;;;;;5006610;28;20683;-79
2022/06/14 01:42:21;;;;;;;4.37;4.00;;;14.00;99.90;;;;;;5017526;28;20634;-79
2022/06/14 01:44:54;;;;;;;5.90;4.27;;;14.00;99.90;;;;;;5022987;28;21196;-79
2022/06/14 01:47:29;;;;;;;5.80;4.50;;;13.90;99.90;;;;;;5017443;28;20634;-80
2022/06/14 01:53:02;;;;;;;5.23;4.70;;;13.80;99.90;;;;;;5022407;28;21151;-79
2022/06/14 01:55:37;;;;;;;6.30;4.80;;;13.80;99.90;;;;;;5021756;28;20638;-79
2022/06/14 01:58:10;;;;;;;6.13;5.50;;;13.70;99.90;;;;;;5018119;28;20633;-79
2022/06/14 02:00:47;;;;;;;4.90;4.27;;;13.70;99.90;;;;;;5021174;28;20678;-79
2022/06/14 02:06:16;;;;;;;6.90;4.70;;;13.70;99.90;;;;;;5021624;28;20656;-79
2022/06/14 02:08:50;;;;;;;6.07;5.47;;;13.80;99.90;;;;;;5018518;28;20630;-79
2022/06/14 02:11:23;;;;;;;5.47;5.07;;;13.70;99.90;;;;;;5020410;28;20650;-80
2022/06/14 02:13:53;;;;;;;5.63;5.00;;;13.60;99.90;;;;;;5019494;28;20634;-79
2022/06/14 02:16:28;;;;;;;6.37;5.60;;;13.60;99.90;;;;;;5021759;28;20634;-80
2022/06/14 02:18:59;;;;;;;5.13;4.60;;;13.60;99.90;;;;;;5013277;28;20669;-80
2022/06/14 02:21:32;;;;;;;7.10;5.00;;;13.40;99.90;;;;;;5023004;28;20674;-80
2022/06/14 02:24:06;;;;;;;5.60;5.00;;;13.40;99.90;;;;;;5019680;28;20856;-79
2022/06/14 02:26:36;;;;;;;6.87;5.17;;;13.30;99.90;;;;;;5018893;28;21103;-80
2022/06/14 02:29:09;;;;;;;6.37;5.10;;;13.30;99.90;;;;;;5012886;28;20619;-79
2022/06/14 02:31:40;;;;;;;7.90;4.40;;;13.20;99.90;;;;;;5019196;28;20619;-79
2022/06/14 02:34:12;;;;;;;6.60;5.40;;;13.30;99.90;;;;;;5018179;28;20623;-78
2022/06/14 02:36:43;;;;;;;4.83;4.43;;;13.20;99.90;;;;;;5022988;28;20621;-78
2022/06/14 02:39:15;;;;;;;5.40;4.60;;;13.20;99.90;;;;;;5013311;28;20628;-78
2022/06/14 02:41:46;;;;;;;4.50;4.10;;;13.20;99.90;;;;;;5013049;28;20619;-78
2022/06/14 02:44:17;;;;;;;8.10;5.20;;;13.20;99.90;;;;;;5012260;28;20626;-79
2022/06/14 02:46:51;;;;;;;7.70;5.47;;;13.10;99.90;;;;;;5016534;28;20650;-78
2022/06/14 02:49:26;;;;;;;6.83;4.90;;;12.70;99.90;;;;;;5018197;28;20635;-79
2022/06/14 02:51:57;;;;;;;5.87;5.20;;;13.10;99.90;;;;;;5018914;28;20639;-79
2022/06/14 02:54:29;;;;;;;7.20;5.47;;;13.10;99.90;;;;;;5018584;28;20703;-78
2022/06/14 02:57:02;;;;;;;7.80;5.43;;;13.10;99.90;;;;;;5021381;28;21154;-78
2022/06/14 02:59:33;;;;;;;6.03;5.30;;;13.10;99.90;;;;;;5010366;28;20622;-79
2022/06/14 03:02:02;;;;;;;11.77;5.13;;;13.20;99.90;;;;;;5018673;28;20631;-79
2022/06/14 03:04:34;;;;;;;7.07;5.10;;;13.20;99.90;;;;;;5019288;28;20984;-79
2022/06/14 03:07:07;;;;;;;5.17;4.67;;;13.10;99.90;;;;;;5015202;28;20612;-79
2022/06/14 03:09:37;;;;;;;7.07;6.00;;;13.00;99.90;;;;;;5013324;28;20666;-79
2022/06/14 03:12:15;;;;;;;5.93;5.03;;;13.00;99.90;;;;;;5014166;28;21767;-79
2022/06/14 03:14:54;;;;;;;6.60;5.10;;;13.00;99.90;;;;;;5012632;28;20713;-79
2022/06/14 03:17:28;;;;;;;5.63;5.13;;;13.00;99.90;;;;;;5019336;28;20657;-79
2022/06/14 03:20:05;;;;;;;5.60;5.10;;;12.90;99.90;;;;;;5016363;28;20784;-78
2022/06/14 03:22:43;;;;;;;8.83;5.40;;;12.90;99.90;;;;;;5016748;28;20627;-78
2022/06/14 03:25:19;;;;;;;7.00;4.97;;;12.90;99.90;;;;;;5007938;28;20634;-78
2022/06/14 03:27:51;;;;;;;6.33;5.30;;;12.90;99.90;;;;;;5014476;28;21177;-78
2022/06/14 03:30:21;;;;;;;6.20;5.57;;;12.80;99.90;;;;;;5013268;28;20962;-80
2022/06/14 03:32:55;;;;;;;9.00;6.30;;;12.90;99.90;;;;;;5009859;28;20982;-78
2022/06/14 03:35:27;;;;;;;6.43;5.70;;;13.00;99.90;;;;;;5018573;28;20629;-78
2022/06/14 03:37:57;;;;;;;8.10;5.50;;;13.00;99.90;;;;;;5013560;28;20622;-78
2022/06/14 03:40:25;;;;;;;5.70;5.10;;;12.60;99.90;;;;;;5007991;28;20716;-78
2022/06/14 03:42:53;;;;;;;6.60;5.60;;;13.00;99.90;;;;;;5012454;28;20631;-78
2022/06/14 03:45:32;;;;;;;7.23;5.30;;;12.90;99.90;;;;;;5004648;28;20651;-78
2022/06/14 03:47:59;;;;;;;5.87;5.33;;;12.60;99.90;;;;;;5012026;28;20681;-78
2022/06/14 03:50:35;;;;;;;9.20;5.57;;;12.70;99.90;;;;;;5010029;28;21135;-80
2022/06/14 03:53:12;;;;;;;6.53;5.40;;;12.80;99.90;;;;;;5006088;28;20624;-80
2022/06/14 03:56:01;;;;;;;6.10;5.43;;;12.90;99.90;;;;;;5010575;28;20638;-80
2022/06/14 03:58:39;;;;;;;5.70;5.30;;;13.00;99.90;;;;;;5001925;28;20635;-80
2022/06/14 04:01:13;;;;;;;5.20;4.70;;;13.00;99.90;;;;;;5004123;28;20674;-78
2022/06/14 04:04:08;;;;;;;7.07;5.50;;;13.10;99.90;;;;;;5001585;28;21073;-80
2022/06/14 04:06:45;;;;;;;6.10;5.07;;;13.10;99.90;;;;;;5002752;28;20639;-80
2022/06/14 04:09:21;;;;;;;6.20;5.10;;;13.10;99.90;;;;;;5001796;28;20630;-81
2022/06/14 04:11:59;;;;;;;8.33;5.83;;;13.20;99.90;;;;;;5001626;28;21299;-81
2022/06/14 04:14:38;;;;;;;7.40;5.57;;;13.20;99.90;;;;;;5011011;28;20640;-78
2022/06/14 04:17:16;;;;;;;9.07;5.50;;;13.30;99.90;;;;;;5016722;28;20634;-80
2022/06/14 04:19:55;;;;;;;6.77;4.60;;;13.10;99.90;;;;;;5007391;28;20655;-81
2022/06/14 04:22:27;;;;;;;7.83;5.13;;;13.10;99.90;;;;;;5005671;28;20990;-78
2022/06/14 04:24:57;;;;;;;5.60;4.60;;;13.10;99.90;;;;;;5004487;28;20999;-80
2022/06/14 04:27:34;;;;;;;8.23;5.87;;;13.10;99.90;;;;;;5009520;28;21155;-80
2022/06/14 04:30:08;;;;;;;6.10;5.60;;;13.10;99.90;;;;;;5012786;28;20668;-81
2022/06/14 04:32:40;;;;;;;5.97;5.20;;;13.00;99.90;;;;;;5003758;28;20639;-80
2022/06/14 04:35:16;;;;;;;6.13;4.77;;;13.00;99.90;;;;;;5006269;28;20639;-81
2022/06/14 04:37:47;;;;;;;7.90;5.20;;;13.20;99.90;;;;;;4996104;28;20634;-80
2022/06/14 04:40:19;;;;;;;5.40;4.77;;;12.80;99.90;;;;;;5002824;28;20678;-80
2022/06/14 04:42:55;;;;;;;5.93;5.43;;;13.30;99.90;;;;;;5009604;28;20624;-80
2022/06/14 04:45:26;;;;;;;5.80;5.30;;;13.30;99.90;;;;;;5012197;28;21135;-79
2022/06/14 04:47:59;;;;;;;5.47;4.90;;;13.20;99.90;;;;;;5009956;28;20631;-80
2022/06/14 04:50:30;;;;;;;7.37;5.77;;;13.40;99.90;;;;;;5009927;28;20773;-80
2022/06/14 04:53:02;;;;;;;9.57;6.20;;;13.50;99.90;;;;;;5012528;28;20616;-80
2022/06/14 04:55:34;;;;;;;6.40;5.80;;;13.40;99.90;;;;;;5016106;28;20622;-79
2022/06/14 04:58:09;;;;;;;6.27;5.53;;;13.30;99.90;;;;;;5004192;28;20616;-79
2022/06/14 05:00:49;;;;;;;6.40;5.30;;;13.40;99.90;;;;;;5010694;28;21327;-80
2022/06/14 05:03:20;;;;;;;5.43;4.90;;;13.60;99.90;;;;;;5004850;28;20653;-83
2022/06/14 05:05:51;;;;;;;7.63;5.80;;;13.60;99.90;;;;;;5001388;28;20643;-82
2022/06/14 05:08:23;;;;;;;6.03;5.53;;;13.60;99.90;;;;;;5002421;28;20654;-83
2022/06/14 05:11:09;;;;;;;7.90;5.70;;;13.60;99.90;;;;;;5001287;28;21278;-83
2022/06/14 05:13:46;;;;;;;6.87;6.17;;;13.60;99.90;;;;;;5010984;28;20646;-83
2022/06/14 05:16:17;;;;;;;6.40;5.87;;;13.60;99.90;;;;;;5008537;28;20662;-83
2022/06/14 05:18:50;;;;;;;6.20;5.60;;;13.60;99.90;;;;;;5008321;28;20627;-86
2022/06/14 05:21:22;;;;;;;6.83;5.43;;;13.60;99.90;;;;;;5016984;28;20864;-83
2022/06/14 05:23:52;;;;;;;6.43;5.83;;;13.60;99.90;;;;;;5005256;28;20643;-81
2022/06/14 05:26:25;;;;;;;9.43;5.83;;;13.60;99.90;;;;;;5002984;28;20986;-81
2022/06/14 05:29:03;;;;;;;6.07;5.47;;;13.70;99.90;;;;;;5001196;28;20639;-81
2022/06/14 05:31:36;;;;;;;7.00;5.80;;;13.80;99.90;;;;;;5002101;28;21315;-81
2022/06/14 05:34:11;;;;;;;7.33;5.47;;;13.90;99.90;;;;;;5000227;28;21392;-81
2022/06/14 05:36:44;;;;;;;6.63;5.73;;;14.00;99.90;;;;;;5002227;28;20626;-81
2022/06/14 05:39:19;;;;;;;7.40;6.33;;;14.10;99.90;;;;;;5000682;28;20620;-81
2022/06/14 05:41:49;;;;;;;6.53;5.53;;;14.20;99.90;;;;;;5008899;28;20702;-81
2022/06/14 05:44:26;;;;;;;5.93;5.33;;;14.30;99.90;;;;;;5005803;28;20635;-81
2022/06/14 05:46:55;;;;;;;9.27;5.77;;;14.30;99.90;;;;;;5001828;28;20716;-81
2022/06/14 05:49:24;;;;;;;7.10;6.40;;;14.30;99.90;;;;;;5005223;28;20638;-81
2022/06/14 05:51:58;;;;;;;7.37;6.50;;;14.30;99.90;;;;;;5002293;28;21186;-81
2022/06/14 05:54:30;;;;;;;6.17;5.57;;;14.40;99.90;;;;;;5002649;28;20620;-81
2022/06/14 05:57:02;;;;;;;9.60;6.27;;;14.50;99.90;;;;;;5008561;28;20639;-81
2022/06/14 05:59:35;;;;;;;5.50;5.00;;;14.70;99.90;;;;;;5002265;28;21223;-81
2022/06/14 06:02:12;;;;;;;8.50;6.07;;;14.80;99.90;;;;;;5002880;28;20652;-81
2022/06/14 06:04:46;;;;;;;9.63;5.20;;;14.90;99.90;;;;;;5004394;28;20635;-82
2022/06/14 06:07:15;;;;;;;7.50;5.63;;;15.00;99.90;;;;;;5002214;28;20643;-81
2022/06/14 06:09:48;;;;;;;13.50;5.10;;;15.10;99.90;;;;;;5006496;28;20652;-82
2022/06/14 06:12:18;;;;;;;5.73;5.13;;;15.10;99.90;;;;;;5006376;28;20630;-81
2022/06/14 06:14:51;;;;;;;9.43;6.20;;;15.10;99.90;;;;;;5003172;28;20628;-82
2022/06/14 06:17:23;;;;;;;5.47;4.97;;;15.30;99.90;;;;;;5005179;28;20648;-80
2022/06/14 06:20:01;;;;;;;6.83;6.07;;;15.40;99.90;;;;;;5004209;28;20785;-80
2022/06/14 06:22:34;;;;;;;6.53;5.30;;;15.40;99.90;;;;;;5005717;28;21224;-80
2022/06/14 06:25:17;;;;;;;7.23;5.60;;;15.50;99.90;;;;;;5008762;28;20620;-80
2022/06/14 06:27:50;;;;;;;7.53;4.97;;;15.60;99.90;;;;;;5012797;28;20630;-80
2022/06/14 06:30:24;;;;;;;9.00;5.40;;;15.70;99.90;;;;;;5004406;28;20675;-81
2022/06/14 06:32:53;;;;;;;5.80;5.23;;;15.80;99.90;;;;;;5014297;28;21168;-81
2022/06/14 06:35:22;;;;;;;5.43;4.93;;;15.90;99.90;;;;;;5004696;28;20639;-80
2022/06/14 06:37:55;;;;;;;6.50;4.60;;;16.00;99.90;;;;;;5003869;28;20628;-81
2022/06/14 06:40:24;;;;;;;7.27;5.37;;;16.10;99.90;;;;;;5004498;28;20665;-81
2022/06/14 06:42:58;;;;;;;4.70;4.30;;;16.30;99.90;;;;;;5004924;28;20706;-81
2022/06/14 06:45:30;;;;;;;5.83;4.40;;;16.40;99.90;;;;;;5000291;28;20965;-81
2022/06/14 06:48:04;;;;;;;8.70;4.63;;;16.50;99.90;;;;;;5003038;28;20628;-81
2022/06/14 06:50:36;;;;;;;6.53;5.00;;;16.60;99.90;;;;;;5003351;28;20647;-81
2022/06/14 06:53:08;;;;;;;7.20;5.37;;;16.70;99.90;;;;;;5011565;28;20613;-81
2022/06/14 06:55:51;;;;;;;6.50;4.77;;;16.80;99.90;;;;;;5007904;28;20658;-81
2022/06/14 06:58:24;;;;;;;7.47;5.53;;;17.00;99.90;;;;;;5003885;28;20639;-81
2022/06/14 07:00:56;;;;;;;11.30;5.70;;;17.00;99.90;;;;;;5001563;28;20658;-81
2022/06/14 07:03:32;;;;;;;6.37;5.43;;;17.10;99.90;;;;;;5000316;28;21202;-81
2022/06/14 07:06:04;;;;;;;5.37;4.53;;;17.20;99.90;;;;;;5005606;28;20647;-81
2022/06/14 07:08:41;;;;;;;6.23;4.90;;;17.30;99.90;;;;;;5007209;28;20638;-81
2022/06/14 07:11:15;;;;;;;6.30;5.27;;;17.40;99.90;;;;;;5003110;28;20655;-80
2022/06/14 07:13:49;;;;;;;8.87;5.43;;;17.50;99.90;;;;;;5001191;28;20619;-81
2022/06/14 07:16:23;;;;;;;8.10;6.20;;;17.60;99.90;;;;;;5008546;28;20653;-81
2022/06/14 07:18:54;;;;;;;6.10;5.20;;;17.60;99.90;;;;;;5004643;28;20680;-81
2022/06/14 07:21:23;;;;;;;6.13;5.33;;;17.80;99.90;;;;;;5004245;28;20679;-81
2022/06/14 07:23:58;;;;;;;10.13;5.33;;;17.80;99.90;;;;;;5002049;28;20707;-81
2022/06/14 07:26:30;;;;;;;8.27;5.67;;;18.00;99.90;;;;;;5003912;28;20657;-83
2022/06/14 07:29:03;;;;;;;6.60;4.60;;;18.10;99.90;;;;;;5004736;28;20661;-82
2022/06/14 07:31:37;;;;;;;7.20;5.00;;;18.20;99.90;;;;;;5002346;28;20827;-82
2022/06/14 07:34:05;;;;;;;7.17;5.17;;;18.30;99.90;;;;;;5007586;28;20620;-82
2022/06/14 07:36:47;;;;;;;5.80;5.27;;;18.50;99.90;;;;;;5002723;28;21050;-81
2022/06/14 07:39:20;;;;;;;8.13;5.47;;;18.60;99.90;;;;;;5000706;28;20616;-80
2022/06/14 07:41:55;;;;;;;8.00;5.00;;;18.70;99.90;;;;;;5002377;28;20718;-81
2022/06/14 07:44:29;;;;;;;6.13;4.90;;;18.90;99.90;;;;;;4999005;28;20642;-81
2022/06/14 07:47:02;;;;;;;4.90;4.50;;;19.00;99.90;;;;;;5000333;28;20619;-82
2022/06/14 07:49:36;;;;;;;6.33;4.50;;;19.10;99.90;;;;;;5004455;28;20640;-82
2022/06/14 07:52:10;;;;;;;6.03;5.27;;;19.30;99.90;;;;;;4996140;28;20619;-82
2022/06/14 07:54:43;;;;;;;7.70;4.73;;;19.40;99.90;;;;;;4999102;28;20642;-82
2022/06/14 07:57:15;;;;;;;7.17;4.30;;;19.50;99.90;;;;;;5001365;28;20728;-82
2022/06/14 07:59:46;;;;;;;5.00;4.60;;;19.70;99.90;;;;;;5000724;28;20666;-82
2022/06/14 08:02:22;;;;;;;7.13;5.10;;;19.90;99.90;;;;;;4999370;28;21548;-82
2022/06/14 08:04:55;;;;;;;5.00;4.50;;;19.90;99.90;;;;;;4994954;28;20635;-82
2022/06/14 08:07:23;;;;;;;5.00;4.60;;;20.10;99.90;;;;;;5003352;28;20635;-83
2022/06/14 08:09:58;;;;;;;5.40;4.90;;;20.10;99.90;;;;;;5002337;28;20682;-82
2022/06/14 08:12:33;;;;;;;5.80;4.47;;;20.00;99.90;;;;;;5000102;28;20682;-82
2022/06/14 08:15:02;;;;;;;5.60;4.30;;;20.20;99.90;;;;;;5000870;28;20628;-82
2022/06/14 08:17:39;;;;;;;6.47;3.67;;;20.20;99.90;;;;;;5005216;28;20646;-82
2022/06/14 08:20:12;;;;;;;6.40;4.67;;;20.30;99.90;;;;;;5002592;28;20651;-82
2022/06/14 08:22:43;;;;;;;8.50;4.70;;;20.50;99.90;;;;;;5004555;28;20663;-82
2022/06/14 08:25:14;;;;;;;10.03;5.97;;;20.50;99.90;;;;;;4996719;28;20670;-82
2022/06/14 08:27:46;;;;;;;8.17;7.30;;;20.60;99.90;;;;;;5001568;28;20623;-82
2022/06/14 08:30:16;;;;;;;9.37;4.97;;;20.60;99.90;;;;;;5002722;28;20651;-82
2022/06/14 08:32:50;;;;;;;5.70;4.80;;;20.70;99.90;;;;;;4997321;28;20619;-82
2022/06/14 08:35:21;;;;;;;3.97;3.57;;;20.90;99.90;;;;;;5004337;28;20651;-82
2022/06/14 08:37:53;;;;;;;9.63;4.00;;;20.90;99.90;;;;;;5007621;28;20634;-81
2022/06/14 08:40:45;;;;;;;7.40;4.97;;;21.00;99.90;;;;;;5004719;28;20682;-81
2022/06/14 08:43:14;;;;;;;4.20;3.80;;;21.10;99.00;;;;;;5009086;28;20808;-82
2022/06/14 08:45:54;;;;;;;4.47;4.07;;;21.20;99.50;;;;;;5010841;28;20622;-81
2022/06/14 08:48:38;;;;;;;9.00;4.40;;;21.30;98.90;;;;;;5006165;28;20610;-81
2022/06/14 08:51:20;;;;;;;6.63;4.30;;;21.40;97.50;;;;;;5014323;28;20657;-81
2022/06/14 08:54:28;;;;;;;4.00;3.70;;;21.60;98.50;;;;;;5011093;28;20854;-82
2022/06/14 08:57:09;;;;;;;8.50;3.60;;;21.80;98.80;;;;;;5014070;28;20631;-82
2022/06/14 09:00:07;;;;;;;5.93;4.70;;;21.90;95.30;;;;;;5007213;28;20655;-82
2022/06/14 09:03:07;;;;;;;4.60;4.10;;;22.00;96.20;;;;;;5012058;28;21258;-82
2022/06/14 09:05:56;;;;;;;3.50;3.20;;;22.20;93.60;;;;;;5013574;28;20761;-82
2022/06/14 09:08:55;;;;;;;5.80;4.30;;;22.20;93.60;;;;;;5012869;28;20647;-82
2022/06/14 09:12:09;;;;;;;4.73;3.80;;;22.20;91.20;;;;;;5006025;28;20656;-82
2022/06/14 09:15:16;;;;;;;5.20;3.93;;;22.10;91.00;;;;;;5011583;28;20638;-82
2022/06/14 09:18:02;;;;;;;6.70;3.40;;;22.00;90.50;;;;;;5013465;28;20636;-82
2022/06/14 09:20:39;;;;;;;6.60;3.63;;;22.00;91.10;;;;;;4991066;28;20654;-82
2022/06/14 09:23:17;;;;;;;3.83;3.40;;;22.20;93.30;;;;;;5016643;28;20646;-82
2022/06/14 09:26:12;;;;;;;4.87;4.20;;;22.30;92.40;;;;;;5007251;28;20733;-82
2022/06/14 09:29:18;;;;;;;5.13;3.80;;;22.60;90.50;;;;;;5005360;28;20608;-82
2022/06/14 09:32:04;;;;;;;5.80;3.43;;;22.50;86.30;;;;;;5006224;28;20628;-82
2022/06/14 09:35:07;;;;;;;5.30;3.50;;;22.60;86.20;;;;;;5012356;28;20633;-81
2022/06/14 09:38:00;;;;;;;12.90;4.30;;;22.60;86.10;;;;;;5008845;28;20751;-82
2022/06/14 09:40:55;;;;;;;5.30;3.23;;;22.80;85.30;;;;;;5002675;28;20663;-82
2022/06/14 09:43:52;;;;;;;5.13;3.83;;;22.90;84.50;;;;;;5006329;28;20656;-82
2022/06/14 09:46:50;;;;;;;3.67;3.20;;;23.10;79.70;;;;;;5012202;28;20624;-83
2022/06/14 09:49:51;;;;;;;4.13;3.33;;;23.10;79.20;;;;;;5009668;28;20845;-82
2022/06/14 09:52:54;;;;;;;4.30;3.13;;;23.00;78.10;;;;;;5002135;28;20625;-83
2022/06/14 09:55:56;;;;;;;4.60;2.90;;;23.00;76.20;;;;;;5013584;28;20634;-83
2022/06/14 09:58:52;;;;;;;5.33;3.10;;;23.00;75.80;;;;;;5005820;28;20650;-83
2022/06/14 10:01:28;;;;;;;3.60;2.90;;;23.10;75.20;;;;;;4993055;28;20739;-83
2022/06/14 10:04:16;;;;;;;3.97;3.20;;;23.10;76.20;;;;;;5008277;28;20658;-82
2022/06/14 10:07:16;;;;;;;3.67;2.60;;;23.30;76.70;;;;;;5008656;28;20630;-83
2022/06/14 10:10:05;;;;;;;7.47;4.10;;;23.10;75.20;;;;;;5012552;28;21248;-83
2022/06/14 10:13:12;;;;;;;4.20;3.00;;;23.30;78.90;;;;;;5007518;28;20635;-83
2022/06/14 10:15:47;;;;;;;4.90;3.40;;;23.30;74.70;;;;;;5011340;28;20639;-82
2022/06/14 10:18:32;;;;;;;4.40;3.37;;;23.30;74.00;;;;;;5010768;28;21018;-83
2022/06/14 10:21:03;;;;;;;6.43;3.40;;;23.30;74.10;;;;;;5013395;28;20663;-82
2022/06/14 10:24:00;;;;;;;4.30;3.40;;;23.40;74.00;;;;;;5015274;28;20684;-83
2022/06/14 10:29:43;;;;;;;4.20;3.43;;;23.50;71.60;;;;;;5013476;28;20617;-82
2022/06/14 10:32:53;;;;;;;4.03;3.00;;;23.60;72.80;;;;;;5006236;28;20619;-83
2022/06/14 10:35:30;;;;;;;4.50;2.80;;;23.70;71.00;;;;;;4946764;28;20673;-82
2022/06/14 10:38:25;;;;;;;7.20;2.70;;;23.70;69.20;;;;;;5006380;28;20631;-83
2022/06/14 10:40:58;;;;;;;4.50;3.07;;;23.80;68.00;;;;;;5007805;28;20663;-82
2022/06/14 10:43:43;;;;;;;5.67;4.10;;;24.10;68.90;;;;;;5001519;28;20658;-82
2022/06/14 10:46:20;;;;;;;4.17;2.47;;;24.30;69.20;;;;;;4999412;28;20608;-83
2022/06/14 10:49:10;;;;;;;5.80;2.80;;;24.60;65.70;;;;;;4997266;28;20644;-83
2022/06/14 10:52:03;;;;;;;2.83;2.47;;;24.70;63.40;;;;;;5006121;28;21313;-83
2022/06/14 10:54:43;;;;;;;3.60;2.80;;;24.80;60.70;;;;;;5011410;28;20630;-83
2022/06/14 10:57:20;;;;;;;7.60;3.63;;;25.10;62.20;;;;;;5007192;28;20632;-84
2022/06/14 11:00:09;;;;;;;2.40;2.20;;;25.30;61.30;;;;;;5005256;28;20647;-84
2022/06/14 11:02:53;;;;;;;4.33;2.70;;;25.40;61.50;;;;;;5010455;28;20706;-82
2022/06/14 11:05:29;;;;;;;4.40;3.00;;;25.60;61.40;;;;;;5009625;28;20643;-83
2022/06/14 11:08:25;;;;;;;8.67;3.10;;;25.70;59.50;;;;;;5008362;28;20627;-82
2022/06/14 11:11:09;;;;;;;7.30;3.40;;;26.00;61.60;;;;;;5005761;28;20670;-81
2022/06/14 11:13:45;;;;;;;4.17;2.80;;;26.30;62.20;;;;;;5007622;28;20663;-82
2022/06/14 11:16:30;;;;;;;2.97;2.67;;;26.60;57.20;;;;;;5008404;28;20626;-82
2022/06/14 11:19:29;;;;;;;3.10;2.63;;;26.90;58.00;;;;;;5010324;28;21205;-81
2022/06/14 11:22:08;;;;;;;4.13;3.00;;;27.20;57.10;;;;;;5012704;28;20718;-82
2022/06/14 11:24:44;;;;;;;4.60;2.67;;;27.50;56.00;;;;;;5005853;28;21120;-82
2022/06/14 11:27:19;;;;;;;3.83;2.60;;;27.80;56.20;;;;;;5009926;28;20631;-82
2022/06/14 11:29:56;;;;;;;3.10;2.80;;;28.00;54.20;;;;;;5009621;28;20651;-81
2022/06/14 11:32:29;;;;;;;3.57;2.77;;;28.20;53.60;;;;;;5009630;28;20663;-82
2022/06/14 11:35:06;;;;;;;3.90;3.23;;;28.40;53.90;;;;;;5010082;28;20631;-82
2022/06/14 11:38:00;;;;;;;3.93;3.13;;;28.50;50.70;;;;;;5003407;28;20628;-82
2022/06/14 11:40:30;;;;;;;6.00;3.47;;;28.40;50.70;;;;;;5006739;28;20674;-81
2022/06/14 11:43:15;;;;;;;5.77;3.00;;;28.80;52.00;;;;;;5001233;28;20675;-82
2022/06/14 11:45:50;;;;;;;3.20;2.90;;;29.10;51.80;;;;;;5003740;28;20635;-82
2022/06/14 11:48:25;;;;;;;3.50;3.10;;;28.90;50.00;;;;;;5002210;28;20971;-82
2022/06/14 11:50:57;;;;;;;3.83;2.93;;;28.70;49.80;;;;;;5005548;28;20796;-81
2022/06/14 11:53:51;;;;;;;5.23;3.30;;;28.80;51.60;;;;;;5010746;28;20635;-81
2022/06/14 11:56:30;;;;;;;6.50;3.70;;;29.30;50.50;;;;;;5007570;28;20630;-82
2022/06/14 11:59:27;;;;;;;4.90;3.33;;;29.50;50.10;;;;;;5008355;28;20642;-82
2022/06/14 12:02:12;;;;;;;5.43;3.30;;;29.40;48.00;;;;;;5002322;28;20647;-82
2022/06/14 12:04:48;;;;;;;4.87;3.37;;;29.30;48.20;;;;;;5009428;28;20992;-82
2022/06/14 12:07:23;;;;;;;4.97;3.10;;;29.50;48.20;;;;;;5011082;28;20659;-82
2022/06/14 12:10:40;;;;;;;2.70;2.50;;;29.80;47.80;;;;;;5002572;28;20681;-82
2022/06/14 12:13:21;;;;;;;2.50;2.30;;;30.10;45.60;;;;;;4955053;28;20621;-82
2022/06/14 12:15:55;;;;;;;2.70;2.50;;;30.30;45.20;;;;;;4953630;28;20642;-82
2022/06/14 12:18:25;;;;;;;3.30;2.73;;;30.40;44.50;;;;;;4991100;28;20638;-82
2022/06/14 12:20:59;;;;;;;3.27;2.97;;;30.40;44.20;;;;;;5014779;28;20652;-82
2022/06/14 12:23:30;;;;;;;3.00;2.70;;;30.80;44.20;;;;;;5011387;28;20655;-82
2022/06/14 12:29:01;;;;;;;2.60;2.33;;;30.60;44.10;;;;;;5008271;28;20749;-82
2022/06/14 12:31:35;;;;;;;3.80;3.27;;;30.40;43.60;;;;;;5014601;28;20651;-82
2022/06/14 12:34:08;;;;;;;5.30;3.13;;;30.80;43.90;;;;;;5008369;28;20626;-82
2022/06/14 12:36:43;;;;;;;4.67;3.23;;;31.30;44.80;;;;;;5011483;28;21299;-82
2022/06/14 12:39:16;;;;;;;3.23;2.80;;;31.00;41.30;;;;;;5013498;28;20660;-82
2022/06/14 12:41:50;;;;;;;6.63;3.00;;;30.90;41.00;;;;;;5009312;28;20619;-82
2022/06/14 12:44:42;;;;;;;4.00;3.30;;;31.40;41.40;;;;;;5008797;28;20782;-82
2022/06/14 12:47:16;;;;;;;2.70;2.50;;;31.90;40.50;;;;;;5007516;28;20612;-82
2022/06/14 12:49:46;;;;;;;2.50;2.30;;;32.10;39.90;;;;;;5005708;28;20659;-82
2022/06/14 12:52:17;;;;;;;3.57;3.20;;;32.50;39.80;;;;;;5005510;28;20720;-82
2022/06/14 12:54:51;;;;;;;3.40;2.97;;;33.00;41.50;;;;;;5004538;28;20634;-82
2022/06/14 12:57:23;;;;;;;4.60;3.00;;;33.40;41.10;;;;;;5014489;28;20634;-82
2022/06/14 13:00:01;;;;;;;4.43;2.77;;;33.80;40.60;;;;;;5010395;28;20653;-82
2022/06/14 13:02:36;;;;;;;4.23;2.80;;;34.20;40.10;;;;;;5015095;28;20626;-82
2022/06/14 13:05:14;;;;;;;3.23;2.73;;;34.50;39.60;;;;;;5017967;28;21002;-82
2022/06/14 13:07:51;;;;;;;2.97;2.70;;;34.70;37.00;;;;;;5008688;28;20637;-82
2022/06/14 13:10:42;;;;;;;5.10;2.63;;;35.00;38.30;;;;;;5011770;28;20645;-82
2022/06/14 13:13:34;;;;;;;4.10;2.97;;;35.10;37.10;;;;;;5015111;28;20649;-83
2022/06/14 13:16:07;;;;;;;3.50;2.90;;;35.00;34.60;;;;;;5009311;28;20630;-83
2022/06/14 13:18:49;;;;;;;4.67;3.07;;;34.70;34.60;;;;;;5016627;28;20208;-82
2022/06/14 13:21:27;;;;;;;3.97;2.70;;;34.00;35.30;;;;;;5012856;28;21228;-82
2022/06/14 13:24:04;;;;;;;3.30;2.90;;;34.00;35.30;;;;;;5012583;28;21136;-82
2022/06/14 13:26:58;;;;;;;7.80;2.73;;;34.60;36.70;;;;;;5015593;28;20613;-82
2022/06/14 13:29:33;;;;;;;3.03;2.67;;;34.80;34.80;;;;;;5011291;28;20650;-82
2022/06/14 13:32:21;;;;;;;3.50;2.70;;;35.20;35.70;;;;;;5015326;28;20695;-82
2022/06/14 13:34:56;;;;;;;4.37;2.53;;;35.60;35.00;;;;;;5014234;28;20279;-83
2022/06/14 13:37:36;;;;;;;3.30;2.60;;;35.80;35.80;;;;;;5011850;28;20274;-82
2022/06/14 13:40:11;;;;;;;3.97;2.57;;;36.20;34.30;;;;;;5012721;28;20224;-82
2022/06/14 13:42:46;;;;;;;7.60;2.57;;;36.10;32.90;;;;;;5016470;28;20207;-80
2022/06/14 13:45:19;;;;;;;3.88;2.70;;;36.40;33.50;;;;;;5009719;28;20214;-80
2022/06/14 13:48:00;;;;;;;3.60;3.05;;;36.60;32.70;;;;;;5006063;28;20208;-81